Minto, North Dakota
Current Conditions -  °F | °C
As of 1:55 PM on Thursday 30 Oct 2014 (Local Time) from KGAF Reporting Station
Broken Clouds Broken Clouds  
Wind Chill: 23°   Ceiling: 3300
Heat Index: 36°   Visibility: 10mi
Dew Point: 21°   Wind: 25mph
Humidity: 56%   Direction: 10°N
Pressure: 30.35"   Gusts: 32mph
Location:  48.29°N, 97.37°W
Report Text: KGAF 301855Z AUTO 01022G28KT 10SM BKN033 02/M06 A3035 RMK AO2
Loading
Personal Weather Stations






























Interactive Weather Map
Tropical Storm Tracking
New forecast layout! Learn more

10-Day Weather Forecast

Advertisements
Track Severe Weather on mobile